Girdwood, Alaska
Current Conditions -  °F | °C
As of 4:53 AM on Thursday 30 Oct 2014 (Local Time) from PATO Reporting Station
Broken Clouds Broken Clouds  
Wind Chill: 24°   Ceiling: 9500
Heat Index: 24°   Visibility: 10mi
Dew Point: 24°   Wind: 0mph
Humidity: 100%   Direction: NA
Pressure: 29.63"   Gusts: NA
Location:  60.95°N, 149.16°W
Report Text: PATO 301253Z AUTO 00000KT 10SM FEW075 BKN095 M04/M04 A2963 RMK AO2 SLP034 T10441044 TSNO
Loading
Personal Weather Stations






























Interactive Weather Map
Tropical Storm Tracking
New forecast layout! Learn more

10-Day Weather Forecast

Advertisements
Track Severe Weather on mobile